sensor_id;sensor_type;location;lat;lon;timestamp;temperature;humidity
28520;DHT22;15732;48.534;20.382;2024-01-15T00:00:23;1.40;99.90
28520;DHT22;15732;48.534;20.382;2024-01-15T00:02:50;1.50;99.90
28520;DHT22;15732;48.534;20.382;2024-01-15T00:05:17;1.40;99.90
28520;DHT22;15732;48.534;20.382;2024-01-15T00:07:45;1.40;99.90
28520;DHT22;15732;48.534;20.382;2024-01-15T00:10:11;1.40;99.90
28520;DHT22;15732;48.534;20.382;2024-01-15T00:12:39;1.30;99.90
28520;DHT22;15732;48.534;20.382;2024-01-15T00:15:07;1.30;99.90
28520;DHT22;15732;48.534;20.382;2024-01-15T00:17:33;1.40;99.90
28520;DHT22;15732;48.534;20.382;2024-01-15T00:20:00;1.40;99.90
28520;DHT22;15732;48.534;20.382;2024-01-15T00:22:28;1.40;99.90
28520;DHT22;15732;48.534;20.382;2024-01-15T00:24:55;1.40;99.90
28520;DHT22;15732;48.534;20.382;2024-01-15T00:27:22;1.40;99.90
28520;DHT22;15732;48.534;20.382;2024-01-15T00:29:50;1.40;99.90
28520;DHT22;15732;48.534;20.382;2024-01-15T00:32:18;1.40;99.90
28520;DHT22;15732;48.534;20.382;2024-01-15T00:34:46;1.40;99.90
28520;DHT22;15732;48.534;20.382;2024-01-15T00:37:14;1.40;99.90
28520;DHT22;15732;48.534;20.382;2024-01-15T00:39:45;1.40;99.90
28520;DHT22;15732;48.534;20.382;2024-01-15T00:42:12;1.40;99.90
28520;DHT22;15732;48.534;20.382;2024-01-15T00:44:41;1.30;99.90
28520;DHT22;15732;48.534;20.382;2024-01-15T00:47:12;1.30;99.90
28520;DHT22;15732;48.534;20.382;2024-01-15T00:49:39;1.30;99.90
28520;DHT22;15732;48.534;20.382;2024-01-15T00:52:07;1.20;99.90
28520;DHT22;15732;48.534;20.382;2024-01-15T00:54:38;1.30;99.90
28520;DHT22;15732;48.534;20.382;2024-01-15T00:57:06;1.20;99.90
28520;DHT22;15732;48.534;20.382;2024-01-15T00:59:33;1.20;99.90
28520;DHT22;15732;48.534;20.382;2024-01-15T01:02:00;1.20;99.90
28520;DHT22;15732;48.534;20.382;2024-01-15T01:04:29;1.20;99.90
28520;DHT22;15732;48.534;20.382;2024-01-15T01:06:56;1.20;99.90
28520;DHT22;15732;48.534;20.382;2024-01-15T01:09:23;1.20;99.90
28520;DHT22;15732;48.534;20.382;2024-01-15T01:11:54;1.20;99.90
28520;DHT22;15732;48.534;20.382;2024-01-15T01:14:26;1.10;99.90
28520;DHT22;15732;48.534;20.382;2024-01-15T01:16:57;1.10;99.90
28520;DHT22;15732;48.534;20.382;2024-01-15T01:19:28;1.10;99.90
28520;DHT22;15732;48.534;20.382;2024-01-15T01:21:59;1.10;99.90
28520;DHT22;15732;48.534;20.382;2024-01-15T01:24:27;1.10;99.90
28520;DHT22;15732;48.534;20.382;2024-01-15T01:26:58;1.10;99.90
28520;DHT22;15732;48.534;20.382;2024-01-15T01:29:25;1.10;99.90
28520;DHT22;15732;48.534;20.382;2024-01-15T01:31:56;1.00;99.90
28520;DHT22;15732;48.534;20.382;2024-01-15T01:34:23;1.00;99.90
28520;DHT22;15732;48.534;20.382;2024-01-15T01:36:55;1.00;99.90
28520;DHT22;15732;48.534;20.382;2024-01-15T01:39:26;1.00;99.90
28520;DHT22;15732;48.534;20.382;2024-01-15T01:41:53;1.00;99.90
28520;DHT22;15732;48.534;20.382;2024-01-15T01:44:25;1.00;99.90
28520;DHT22;15732;48.534;20.382;2024-01-15T01:46:52;1.00;99.90
28520;DHT22;15732;48.534;20.382;2024-01-15T01:49:20;1.00;99.90
28520;DHT22;15732;48.534;20.382;2024-01-15T01:51:47;0.90;99.90
28520;DHT22;15732;48.534;20.382;2024-01-15T01:54:19;0.90;99.90
28520;DHT22;15732;48.534;20.382;2024-01-15T01:56:49;0.90;99.90
28520;DHT22;15732;48.534;20.382;2024-01-15T01:59:17;0.90;99.90
28520;DHT22;15732;48.534;20.382;2024-01-15T02:01:49;0.90;99.90
28520;DHT22;15732;48.534;20.382;2024-01-15T02:04:16;0.90;99.90
28520;DHT22;15732;48.534;20.382;2024-01-15T02:06:43;0.80;99.90
28520;DHT22;15732;48.534;20.382;2024-01-15T02:09:11;0.70;99.90
28520;DHT22;15732;48.534;20.382;2024-01-15T02:11:42;0.70;99.90
28520;DHT22;15732;48.534;20.382;2024-01-15T02:14:09;0.60;99.90
28520;DHT22;15732;48.534;20.382;2024-01-15T02:16:36;0.60;99.90
28520;DHT22;15732;48.534;20.382;2024-01-15T02:19:03;0.60;99.90
28520;DHT22;15732;48.534;20.382;2024-01-15T02:21:32;0.50;99.90
28520;DHT22;15732;48.534;20.382;2024-01-15T02:23:59;0.40;99.90
28520;DHT22;15732;48.534;20.382;2024-01-15T02:26:26;0.40;99.90
28520;DHT22;15732;48.534;20.382;2024-01-15T02:28:54;0.30;99.90
28520;DHT22;15732;48.534;20.382;2024-01-15T02:31:21;0.30;99.90
28520;DHT22;15732;48.534;20.382;2024-01-15T02:33:48;0.30;99.90
28520;DHT22;15732;48.534;20.382;2024-01-15T02:36:15;0.30;99.90
28520;DHT22;15732;48.534;20.382;2024-01-15T02:38:43;0.30;99.90
28520;DHT22;15732;48.534;20.382;2024-01-15T02:41:10;0.40;99.90
28520;DHT22;15732;48.534;20.382;2024-01-15T02:43:43;0.40;99.90
28520;DHT22;15732;48.534;20.382;2024-01-15T02:46:10;0.40;99.90
28520;DHT22;15732;48.534;20.382;2024-01-15T02:48:41;0.40;99.90
28520;DHT22;15732;48.534;20.382;2024-01-15T02:51:08;0.30;99.90
28520;DHT22;15732;48.534;20.382;2024-01-15T02:53:36;0.30;99.90
28520;DHT22;15732;48.534;20.382;2024-01-15T02:56:03;0.20;99.90
28520;DHT22;15732;48.534;20.382;2024-01-15T02:58:30;0.10;99.90
28520;DHT22;15732;48.534;20.382;2024-01-15T03:00:58;0.10;99.90
28520;DHT22;15732;48.534;20.382;2024-01-15T03:03:28;0.10;99.90
28520;DHT22;15732;48.534;20.382;2024-01-15T03:06:01;0.10;99.90
28520;DHT22;15732;48.534;20.382;2024-01-15T03:08:32;0.10;99.90
28520;DHT22;15732;48.534;20.382;2024-01-15T03:11:04;0.10;99.90
28520;DHT22;15732;48.534;20.382;2024-01-15T03:13:36;0.10;99.90
28520;DHT22;15732;48.534;20.382;2024-01-15T03:16:05;0.10;99.90
28520;DHT22;15732;48.534;20.382;2024-01-15T03:18:32;0.00;99.90
28520;DHT22;15732;48.534;20.382;2024-01-15T03:20:59;0.00;99.90
28520;DHT22;15732;48.534;20.382;2024-01-15T03:23:28;0.10;99.90
28520;DHT22;15732;48.534;20.382;2024-01-15T03:25:55;0.10;99.90
28520;DHT22;15732;48.534;20.382;2024-01-15T03:28:26;0.00;99.90
28520;DHT22;15732;48.534;20.382;2024-01-15T03:30:59;0.00;99.90
28520;DHT22;15732;48.534;20.382;2024-01-15T03:33:30;-0.10;99.90
28520;DHT22;15732;48.534;20.382;2024-01-15T03:35:58;-0.10;99.90
28520;DHT22;15732;48.534;20.382;2024-01-15T03:38:29;-0.10;99.90
28520;DHT22;15732;48.534;20.382;2024-01-15T03:40:56;-0.20;99.90
28520;DHT22;15732;48.534;20.382;2024-01-15T03:43:28;-0.20;99.90
28520;DHT22;15732;48.534;20.382;2024-01-15T03:45:55;-0.30;99.90
28520;DHT22;15732;48.534;20.382;2024-01-15T03:48:22;-0.30;99.90
28520;DHT22;15732;48.534;20.382;2024-01-15T03:50:53;-0.30;99.90
28520;DHT22;15732;48.534;20.382;2024-01-15T03:53:21;-0.30;99.90
28520;DHT22;15732;48.534;20.382;2024-01-15T03:55:48;-0.30;99.90
28520;DHT22;15732;48.534;20.382;2024-01-15T03:58:20;-0.20;99.90
28520;DHT22;15732;48.534;20.382;2024-01-15T04:00:48;-0.20;99.90
28520;DHT22;15732;48.534;20.382;2024-01-15T04:03:15;-0.10;99.90
28520;DHT22;15732;48.534;20.382;2024-01-15T04:05:42;-0.20;99.90
28520;DHT22;15732;48.534;20.382;2024-01-15T04:08:10;-0.20;99.90
28520;DHT22;15732;48.534;20.382;2024-01-15T04:10:37;-0.20;99.90
28520;DHT22;15732;48.534;20.382;2024-01-15T04:13:09;-0.20;99.90
28520;DHT22;15732;48.534;20.382;2024-01-15T04:15:36;-0.20;99.90
28520;DHT22;15732;48.534;20.382;2024-01-15T04:18:04;-0.20;99.90
28520;DHT22;15732;48.534;20.382;2024-01-15T04:20:31;-0.10;99.90
28520;DHT22;15732;48.534;20.382;2024-01-15T04:22:59;-0.10;99.90
28520;DHT22;15732;48.534;20.382;2024-01-15T04:25:26;-0.10;99.90
28520;DHT22;15732;48.534;20.382;2024-01-15T04:27:53;-0.10;99.90
28520;DHT22;15732;48.534;20.382;2024-01-15T04:30:20;-0.10;99.90
28520;DHT22;15732;48.534;20.382;2024-01-15T04:32:48;-0.10;99.90
28520;DHT22;15732;48.534;20.382;2024-01-15T04:35:15;-0.10;99.90
28520;DHT22;15732;48.534;20.382;2024-01-15T04:37:42;-0.10;99.90
28520;DHT22;15732;48.534;20.382;2024-01-15T04:40:11;-0.10;99.90
28520;DHT22;15732;48.534;20.382;2024-01-15T04:42:38;0.00;99.90
28520;DHT22;15732;48.534;20.382;2024-01-15T04:45:06;0.00;99.90
28520;DHT22;15732;48.534;20.382;2024-01-15T04:47:33;0.00;99.90
28520;DHT22;15732;48.534;20.382;2024-01-15T04:50:04;0.00;99.90
28520;DHT22;15732;48.534;20.382;2024-01-15T04:52:32;0.00;99.90
28520;DHT22;15732;48.534;20.382;2024-01-15T04:54:59;0.00;99.90
28520;DHT22;15732;48.534;20.382;2024-01-15T04:57:27;0.00;99.90
28520;DHT22;15732;48.534;20.382;2024-01-15T04:59:53;-0.10;99.90
28520;DHT22;15732;48.534;20.382;2024-01-15T05:02:21;-0.10;99.90
28520;DHT22;15732;48.534;20.382;2024-01-15T05:04:48;-0.20;99.90
28520;DHT22;15732;48.534;20.382;2024-01-15T05:07:15;-0.20;99.90
28520;DHT22;15732;48.534;20.382;2024-01-15T05:09:42;-0.20;99.90
28520;DHT22;15732;48.534;20.382;2024-01-15T05:12:13;-0.30;99.90
28520;DHT22;15732;48.534;20.382;2024-01-15T05:14:44;-0.20;99.90
28520;DHT22;15732;48.534;20.382;2024-01-15T05:17:11;-0.30;99.90
28520;DHT22;15732;48.534;20.382;2024-01-15T05:19:38;-0.30;99.90
28520;DHT22;15732;48.534;20.382;2024-01-15T05:22:10;-0.40;99.90
28520;DHT22;15732;48.534;20.382;2024-01-15T05:24:37;-0.40;99.90
28520;DHT22;15732;48.534;20.382;2024-01-15T05:27:05;-0.40;99.90
28520;DHT22;15732;48.534;20.382;2024-01-15T05:29:36;-0.30;99.90
28520;DHT22;15732;48.534;20.382;2024-01-15T05:32:03;-0.30;99.90
28520;DHT22;15732;48.534;20.382;2024-01-15T05:34:31;-0.20;99.90
28520;DHT22;15732;48.534;20.382;2024-01-15T05:37:02;-0.20;99.90
28520;DHT22;15732;48.534;20.382;2024-01-15T05:39:30;-0.20;99.90
28520;DHT22;15732;48.534;20.382;2024-01-15T05:42:01;-0.20;99.90
28520;DHT22;15732;48.534;20.382;2024-01-15T05:44:28;-0.30;99.90
28520;DHT22;15732;48.534;20.382;2024-01-15T05:46:55;-0.30;99.90
28520;DHT22;15732;48.534;20.382;2024-01-15T05:49:23;-0.30;99.90
28520;DHT22;15732;48.534;20.382;2024-01-15T05:51:50;-0.30;99.90
28520;DHT22;15732;48.534;20.382;2024-01-15T05:54:21;-0.40;99.90
28520;DHT22;15732;48.534;20.382;2024-01-15T05:56:48;-0.40;99.90
28520;DHT22;15732;48.534;20.382;2024-01-15T05:59:15;-0.40;99.90
28520;DHT22;15732;48.534;20.382;2024-01-15T06:01:43;-0.30;99.90
28520;DHT22;15732;48.534;20.382;2024-01-15T06:04:11;-0.30;99.90
28520;DHT22;15732;48.534;20.382;2024-01-15T06:06:38;-0.20;99.90
28520;DHT22;15732;48.534;20.382;2024-01-15T06:09:05;-0.20;99.90
28520;DHT22;15732;48.534;20.382;2024-01-15T06:11:36;-0.10;99.90
28520;DHT22;15732;48.534;20.382;2024-01-15T06:14:03;-0.10;99.90
28520;DHT22;15732;48.534;20.382;2024-01-15T06:16:30;-0.10;99.90
28520;DHT22;15732;48.534;20.382;2024-01-15T06:18:58;-0.10;99.90
28520;DHT22;15732;48.534;20.382;2024-01-15T06:21:25;-0.10;99.90
28520;DHT22;15732;48.534;20.382;2024-01-15T06:23:52;0.00;99.90
28520;DHT22;15732;48.534;20.382;2024-01-15T06:26:25;0.00;99.90
28520;DHT22;15732;48.534;20.382;2024-01-15T06:28:53;0.00;99.90
28520;DHT22;15732;48.534;20.382;2024-01-15T06:31:20;-0.10;99.90
28520;DHT22;15732;48.534;20.382;2024-01-15T06:33:47;-0.10;99.90
28520;DHT22;15732;48.534;20.382;2024-01-15T06:36:14;-0.20;99.90
28520;DHT22;15732;48.534;20.382;2024-01-15T06:38:43;-0.20;99.90
28520;DHT22;15732;48.534;20.382;2024-01-15T06:41:13;-0.30;99.90
28520;DHT22;15732;48.534;20.382;2024-01-15T06:43:41;-0.30;99.90
28520;DHT22;15732;48.534;20.382;2024-01-15T06:46:08;-0.30;99.90
28520;DHT22;15732;48.534;20.382;2024-01-15T06:48:39;-0.30;99.90
28520;DHT22;15732;48.534;20.382;2024-01-15T06:51:07;-0.30;99.90
28520;DHT22;15732;48.534;20.382;2024-01-15T06:53:38;-0.30;99.90
28520;DHT22;15732;48.534;20.382;2024-01-15T06:56:05;-0.40;99.90
28520;DHT22;15732;48.534;20.382;2024-01-15T06:58:37;-0.40;99.90
28520;DHT22;15732;48.534;20.382;2024-01-15T07:01:08;-0.40;99.90
28520;DHT22;15732;48.534;20.382;2024-01-15T07:03:39;-0.40;99.90
28520;DHT22;15732;48.534;20.382;2024-01-15T07:09:09;-0.50;99.90
28520;DHT22;15732;48.534;20.382;2024-01-15T07:11:37;-0.60;99.90
28520;DHT22;15732;48.534;20.382;2024-01-15T07:14:04;-0.60;99.90
28520;DHT22;15732;48.534;20.382;2024-01-15T07:16:31;-0.60;99.90
28520;DHT22;15732;48.534;20.382;2024-01-15T07:18:59;-0.60;99.90
28520;DHT22;15732;48.534;20.382;2024-01-15T07:21:30;-0.70;99.90
28520;DHT22;15732;48.534;20.382;2024-01-15T07:23:57;-0.60;99.90
28520;DHT22;15732;48.534;20.382;2024-01-15T07:26:23;-0.60;99.90
28520;DHT22;15732;48.534;20.382;2024-01-15T07:28:51;-0.60;99.90
28520;DHT22;15732;48.534;20.382;2024-01-15T07:31:19;-0.60;99.90
28520;DHT22;15732;48.534;20.382;2024-01-15T07:33:46;-0.60;99.90
28520;DHT22;15732;48.534;20.382;2024-01-15T07:36:13;-0.60;99.90
28520;DHT22;15732;48.534;20.382;2024-01-15T07:38:44;-0.60;99.90
28520;DHT22;15732;48.534;20.382;2024-01-15T07:41:13;-0.50;99.90
28520;DHT22;15732;48.534;20.382;2024-01-15T07:43:40;-0.50;99.90
28520;DHT22;15732;48.534;20.382;2024-01-15T07:46:07;-0.50;99.90
28520;DHT22;15732;48.534;20.382;2024-01-15T07:48:34;-0.40;99.90
28520;DHT22;15732;48.534;20.382;2024-01-15T07:51:01;-0.30;99.90
28520;DHT22;15732;48.534;20.382;2024-01-15T07:53:29;-0.30;99.90
28520;DHT22;15732;48.534;20.382;2024-01-15T07:55:56;-0.20;99.90
28520;DHT22;15732;48.534;20.382;2024-01-15T07:58:23;-0.30;99.90
28520;DHT22;15732;48.534;20.382;2024-01-15T08:00:51;-0.20;99.90
28520;DHT22;15732;48.534;20.382;2024-01-15T08:03:19;-0.20;99.90
28520;DHT22;15732;48.534;20.382;2024-01-15T08:05:46;-0.20;99.90
28520;DHT22;15732;48.534;20.382;2024-01-15T08:08:13;-0.20;99.90
28520;DHT22;15732;48.534;20.382;2024-01-15T08:10:41;-0.20;99.90
28520;DHT22;15732;48.534;20.382;2024-01-15T08:13:08;-0.10;99.90
28520;DHT22;15732;48.534;20.382;2024-01-15T08:15:36;-0.10;99.90
28520;DHT22;15732;48.534;20.382;2024-01-15T08:18:07;-0.10;99.90
28520;DHT22;15732;48.534;20.382;2024-01-15T08:20:34;-0.10;99.90
28520;DHT22;15732;48.534;20.382;2024-01-15T08:23:00;-0.10;99.90
28520;DHT22;15732;48.534;20.382;2024-01-15T08:25:27;-0.10;99.90
28520;DHT22;15732;48.534;20.382;2024-01-15T08:27:56;0.00;99.90
28520;DHT22;15732;48.534;20.382;2024-01-15T08:30:23;0.00;99.90
28520;DHT22;15732;48.534;20.382;2024-01-15T08:32:54;0.20;99.90
28520;DHT22;15732;48.534;20.382;2024-01-15T08:35:21;0.30;99.90
28520;DHT22;15732;48.534;20.382;2024-01-15T08:37:52;0.40;99.90
28520;DHT22;15732;48.534;20.382;2024-01-15T08:40:19;0.50;99.90
28520;DHT22;15732;48.534;20.382;2024-01-15T08:42:47;0.60;99.90
28520;DHT22;15732;48.534;20.382;2024-01-15T08:45:14;0.70;99.90
28520;DHT22;15732;48.534;20.382;2024-01-15T08:47:42;0.70;99.90
28520;DHT22;15732;48.534;20.382;2024-01-15T08:50:09;0.80;99.90
28520;DHT22;15732;48.534;20.382;2024-01-15T08:52:36;0.90;99.90
28520;DHT22;15732;48.534;20.382;2024-01-15T08:55:07;1.00;99.90
28520;DHT22;15732;48.534;20.382;2024-01-15T08:57:35;1.10;99.90
28520;DHT22;15732;48.534;20.382;2024-01-15T09:00:07;1.20;99.90
28520;DHT22;15732;48.534;20.382;2024-01-15T09:02:36;1.20;99.90
28520;DHT22;15732;48.534;20.382;2024-01-15T09:05:03;1.30;99.90
28520;DHT22;15732;48.534;20.382;2024-01-15T09:07:31;1.30;99.90
28520;DHT22;15732;48.534;20.382;2024-01-15T09:09:59;1.30;99.90
28520;DHT22;15732;48.534;20.382;2024-01-15T09:12:27;1.40;99.90
28520;DHT22;15732;48.534;20.382;2024-01-15T09:14:59;1.40;99.90
28520;DHT22;15732;48.534;20.382;2024-01-15T09:17:27;1.40;99.90
28520;DHT22;15732;48.534;20.382;2024-01-15T09:19:54;1.40;99.90
28520;DHT22;15732;48.534;20.382;2024-01-15T09:22:21;1.40;99.90
28520;DHT22;15732;48.534;20.382;2024-01-15T09:24:49;1.40;99.90
28520;DHT22;15732;48.534;20.382;2024-01-15T09:27:16;1.40;99.90
28520;DHT22;15732;48.534;20.382;2024-01-15T09:29:47;1.40;99.90
28520;DHT22;15732;48.534;20.382;2024-01-15T09:32:14;1.50;99.90
28520;DHT22;15732;48.534;20.382;2024-01-15T09:34:42;1.50;99.90
28520;DHT22;15732;48.534;20.382;2024-01-15T09:37:09;1.50;99.90
28520;DHT22;15732;48.534;20.382;2024-01-15T09:39:37;1.50;99.90
28520;DHT22;15732;48.534;20.382;2024-01-15T09:42:04;1.40;99.90
28520;DHT22;15732;48.534;20.382;2024-01-15T09:44:32;1.40;99.90
28520;DHT22;15732;48.534;20.382;2024-01-15T09:47:00;1.40;99.90
28520;DHT22;15732;48.534;20.382;2024-01-15T09:49:27;1.40;99.90
28520;DHT22;15732;48.534;20.382;2024-01-15T09:51:55;1.40;99.90
28520;DHT22;15732;48.534;20.382;2024-01-15T09:54:23;1.50;99.90
28520;DHT22;15732;48.534;20.382;2024-01-15T09:56:50;1.50;99.90
28520;DHT22;15732;48.534;20.382;2024-01-15T09:59:19;1.60;99.90
28520;DHT22;15732;48.534;20.382;2024-01-15T10:01:48;1.60;99.90
28520;DHT22;15732;48.534;20.382;2024-01-15T10:04:17;1.70;99.90
28520;DHT22;15732;48.534;20.382;2024-01-15T10:06:45;1.70;99.90
28520;DHT22;15732;48.534;20.382;2024-01-15T10:09:14;1.80;99.90
28520;DHT22;15732;48.534;20.382;2024-01-15T10:11:42;1.80;99.90
28520;DHT22;15732;48.534;20.382;2024-01-15T10:14:14;1.80;99.90
28520;DHT22;15732;48.534;20.382;2024-01-15T10:16:41;1.80;99.90
28520;DHT22;15732;48.534;20.382;2024-01-15T10:19:09;1.70;99.90
28520;DHT22;15732;48.534;20.382;2024-01-15T10:21:36;1.70;99.90
28520;DHT22;15732;48.534;20.382;2024-01-15T10:24:03;1.60;99.90
28520;DHT22;15732;48.534;20.382;2024-01-15T10:26:32;1.60;99.90
28520;DHT22;15732;48.534;20.382;2024-01-15T10:28:59;1.50;99.90
28520;DHT22;15732;48.534;20.382;2024-01-15T10:31:30;1.60;99.90
28520;DHT22;15732;48.534;20.382;2024-01-15T10:34:13;1.60;99.90
28520;DHT22;15732;48.534;20.382;2024-01-15T10:36:57;1.50;99.90
28520;DHT22;15732;48.534;20.382;2024-01-15T10:39:24;1.50;99.90
28520;DHT22;15732;48.534;20.382;2024-01-15T10:41:51;1.60;99.90
28520;DHT22;15732;48.534;20.382;2024-01-15T10:44:19;1.60;99.90
28520;DHT22;15732;48.534;20.382;2024-01-15T10:46:46;1.60;99.90
28520;DHT22;15732;48.534;20.382;2024-01-15T10:49:18;1.70;99.90
28520;DHT22;15732;48.534;20.382;2024-01-15T10:51:46;1.80;99.90
28520;DHT22;15732;48.534;20.382;2024-01-15T10:54:14;1.90;99.90
28520;DHT22;15732;48.534;20.382;2024-01-15T10:56:42;2.00;99.90
28520;DHT22;15732;48.534;20.382;2024-01-15T10:59:11;2.10;99.90
28520;DHT22;15732;48.534;20.382;2024-01-15T11:01:40;2.10;99.90
28520;DHT22;15732;48.534;20.382;2024-01-15T11:04:08;2.20;99.90
28520;DHT22;15732;48.534;20.382;2024-01-15T11:06:46;2.30;99.90
28520;DHT22;15732;48.534;20.382;2024-01-15T11:09:13;2.30;99.90
28520;DHT22;15732;48.534;20.382;2024-01-15T11:11:43;2.40;99.90
28520;DHT22;15732;48.534;20.382;2024-01-15T11:14:10;2.50;99.90
28520;DHT22;15732;48.534;20.382;2024-01-15T11:16:54;2.50;99.90
28520;DHT22;15732;48.534;20.382;2024-01-15T11:19:23;2.60;99.90
28520;DHT22;15732;48.534;20.382;2024-01-15T11:21:50;2.60;99.90
28520;DHT22;15732;48.534;20.382;2024-01-15T11:24:37;2.70;99.90
28520;DHT22;15732;48.534;20.382;2024-01-15T11:27:05;2.70;99.90
28520;DHT22;15732;48.534;20.382;2024-01-15T11:32:10;2.80;99.90
28520;DHT22;15732;48.534;20.382;2024-01-15T11:34:59;2.70;99.90
28520;DHT22;15732;48.534;20.382;2024-01-15T11:37:29;2.80;99.90
28520;DHT22;15732;48.534;20.382;2024-01-15T11:40:18;2.90;99.90
28520;DHT22;15732;48.534;20.382;2024-01-15T11:42:50;3.00;99.90
28520;DHT22;15732;48.534;20.382;2024-01-15T11:45:19;3.10;99.90
28520;DHT22;15732;48.534;20.382;2024-01-15T11:50:22;3.40;99.90
28520;DHT22;15732;48.534;20.382;2024-01-15T11:53:01;3.50;99.90
28520;DHT22;15732;48.534;20.382;2024-01-15T11:55:35;3.50;99.90
28520;DHT22;15732;48.534;20.382;2024-01-15T11:58:08;3.60;99.90
28520;DHT22;15732;48.534;20.382;2024-01-15T12:00:44;3.60;99.90
28520;DHT22;15732;48.534;20.382;2024-01-15T12:03:11;3.60;99.90
28520;DHT22;15732;48.534;20.382;2024-01-15T12:05:42;3.60;99.90
28520;DHT22;15732;48.534;20.382;2024-01-15T12:08:09;3.60;99.90
28520;DHT22;15732;48.534;20.382;2024-01-15T12:10:40;3.60;99.90
28520;DHT22;15732;48.534;20.382;2024-01-15T12:13:14;3.70;99.90
28520;DHT22;15732;48.534;20.382;2024-01-15T12:15:42;3.70;99.90
28520;DHT22;15732;48.534;20.382;2024-01-15T12:18:10;3.70;99.90
28520;DHT22;15732;48.534;20.382;2024-01-15T12:20:37;3.70;99.90
28520;DHT22;15732;48.534;20.382;2024-01-15T12:23:06;3.70;99.90
28520;DHT22;15732;48.534;20.382;2024-01-15T12:25:34;3.70;99.90
28520;DHT22;15732;48.534;20.382;2024-01-15T12:28:01;3.70;99.90
28520;DHT22;15732;48.534;20.382;2024-01-15T12:30:29;3.70;99.90
28520;DHT22;15732;48.534;20.382;2024-01-15T12:33:06;3.70;99.90
28520;DHT22;15732;48.534;20.382;2024-01-15T12:35:35;3.70;99.90
28520;DHT22;15732;48.534;20.382;2024-01-15T12:38:03;3.70;99.90
28520;DHT22;15732;48.534;20.382;2024-01-15T12:40:31;3.70;99.90
28520;DHT22;15732;48.534;20.382;2024-01-15T12:42:59;3.80;99.90
28520;DHT22;15732;48.534;20.382;2024-01-15T12:45:26;3.80;99.90
28520;DHT22;15732;48.534;20.382;2024-01-15T12:47:53;3.80;99.90
28520;DHT22;15732;48.534;20.382;2024-01-15T12:50:23;3.80;99.90
28520;DHT22;15732;48.534;20.382;2024-01-15T12:52:51;3.80;99.90
28520;DHT22;15732;48.534;20.382;2024-01-15T12:55:18;3.80;99.90
28520;DHT22;15732;48.534;20.382;2024-01-15T12:57:45;3.80;99.90
28520;DHT22;15732;48.534;20.382;2024-01-15T13:00:14;3.80;99.90
28520;DHT22;15732;48.534;20.382;2024-01-15T13:02:42;3.90;99.90
28520;DHT22;15732;48.534;20.382;2024-01-15T13:05:09;3.90;99.90
28520;DHT22;15732;48.534;20.382;2024-01-15T13:07:39;3.90;99.90
28520;DHT22;15732;48.534;20.382;2024-01-15T13:10:10;3.90;99.90
28520;DHT22;15732;48.534;20.382;2024-01-15T13:12:40;4.00;99.90
28520;DHT22;15732;48.534;20.382;2024-01-15T13:15:08;4.00;99.90
28520;DHT22;15732;48.534;20.382;2024-01-15T13:17:39;4.00;99.90
28520;DHT22;15732;48.534;20.382;2024-01-15T13:20:10;4.00;99.90
28520;DHT22;15732;48.534;20.382;2024-01-15T13:22:37;4.00;99.90
28520;DHT22;15732;48.534;20.382;2024-01-15T13:25:06;4.00;99.90
28520;DHT22;15732;48.534;20.382;2024-01-15T13:27:34;4.00;99.90
28520;DHT22;15732;48.534;20.382;2024-01-15T13:30:01;4.10;99.90
28520;DHT22;15732;48.534;20.382;2024-01-15T13:32:29;4.10;99.90
28520;DHT22;15732;48.534;20.382;2024-01-15T13:34:57;4.10;99.90
28520;DHT22;15732;48.534;20.382;2024-01-15T13:37:23;4.10;99.90
28520;DHT22;15732;48.534;20.382;2024-01-15T13:39:54;4.10;99.90
28520;DHT22;15732;48.534;20.382;2024-01-15T13:42:25;4.10;99.90
28520;DHT22;15732;48.534;20.382;2024-01-15T13:44:56;4.10;99.90
28520;DHT22;15732;48.534;20.382;2024-01-15T13:47:24;4.10;99.90
28520;DHT22;15732;48.534;20.382;2024-01-15T13:49:51;4.10;99.90
28520;DHT22;15732;48.534;20.382;2024-01-15T13:52:18;4.10;99.90
28520;DHT22;15732;48.534;20.382;2024-01-15T13:54:45;4.10;99.90
28520;DHT22;15732;48.534;20.382;2024-01-15T13:57:13;4.10;99.90
28520;DHT22;15732;48.534;20.382;2024-01-15T13:59:40;4.10;99.90
28520;DHT22;15732;48.534;20.382;2024-01-15T14:02:10;4.00;99.90
28520;DHT22;15732;48.534;20.382;2024-01-15T14:04:38;4.00;99.90
28520;DHT22;15732;48.534;20.382;2024-01-15T14:07:05;4.00;99.90
28520;DHT22;15732;48.534;20.382;2024-01-15T14:09:33;4.00;99.90
28520;DHT22;15732;48.534;20.382;2024-01-15T14:12:00;3.90;99.90
28520;DHT22;15732;48.534;20.382;2024-01-15T14:14:31;3.90;99.90
28520;DHT22;15732;48.534;20.382;2024-01-15T14:16:59;3.90;99.90
28520;DHT22;15732;48.534;20.382;2024-01-15T14:19:27;3.90;99.90
28520;DHT22;15732;48.534;20.382;2024-01-15T14:21:54;3.90;99.90
28520;DHT22;15732;48.534;20.382;2024-01-15T14:24:22;3.80;99.90
28520;DHT22;15732;48.534;20.382;2024-01-15T14:26:53;3.80;99.90
28520;DHT22;15732;48.534;20.382;2024-01-15T14:29:20;3.80;99.90
28520;DHT22;15732;48.534;20.382;2024-01-15T14:31:52;3.70;99.90
28520;DHT22;15732;48.534;20.382;2024-01-15T14:34:19;3.70;99.90
28520;DHT22;15732;48.534;20.382;2024-01-15T14:36:50;3.70;99.90
28520;DHT22;15732;48.534;20.382;2024-01-15T14:39:21;3.60;99.90
28520;DHT22;15732;48.534;20.382;2024-01-15T14:41:48;3.60;99.90
28520;DHT22;15732;48.534;20.382;2024-01-15T14:44:19;3.60;99.90
28520;DHT22;15732;48.534;20.382;2024-01-15T14:46:47;3.50;99.90
28520;DHT22;15732;48.534;20.382;2024-01-15T14:49:15;3.50;99.90
28520;DHT22;15732;48.534;20.382;2024-01-15T14:51:44;3.50;99.90
28520;DHT22;15732;48.534;20.382;2024-01-15T14:54:11;3.40;99.90
28520;DHT22;15732;48.534;20.382;2024-01-15T14:56:38;3.40;99.90
28520;DHT22;15732;48.534;20.382;2024-01-15T14:59:05;3.40;99.90
28520;DHT22;15732;48.534;20.382;2024-01-15T15:01:33;3.30;99.90
28520;DHT22;15732;48.534;20.382;2024-01-15T15:04:04;3.30;99.90
28520;DHT22;15732;48.534;20.382;2024-01-15T15:06:32;3.30;99.90
28520;DHT22;15732;48.534;20.382;2024-01-15T15:08:59;3.20;99.90
28520;DHT22;15732;48.534;20.382;2024-01-15T15:11:27;3.20;99.90
28520;DHT22;15732;48.534;20.382;2024-01-15T15:13:54;3.20;99.90
28520;DHT22;15732;48.534;20.382;2024-01-15T15:16:21;3.10;99.90
28520;DHT22;15732;48.534;20.382;2024-01-15T15:18:48;3.10;99.90
28520;DHT22;15732;48.534;20.382;2024-01-15T15:21:16;3.00;99.90
28520;DHT22;15732;48.534;20.382;2024-01-15T15:23:43;3.00;99.90
28520;DHT22;15732;48.534;20.382;2024-01-15T15:26:10;3.00;99.90
28520;DHT22;15732;48.534;20.382;2024-01-15T15:28:38;3.00;99.90
28520;DHT22;15732;48.534;20.382;2024-01-15T15:31:06;3.00;99.90
28520;DHT22;15732;48.534;20.382;2024-01-15T15:33:35;2.90;99.90
28520;DHT22;15732;48.534;20.382;2024-01-15T15:36:03;2.90;99.90
28520;DHT22;15732;48.534;20.382;2024-01-15T15:38:33;2.90;99.90
28520;DHT22;15732;48.534;20.382;2024-01-15T15:41:00;2.90;99.90
28520;DHT22;15732;48.534;20.382;2024-01-15T15:43:28;2.80;99.90